»·PEaware :: ASA1490 KLAX-KLAS

ASA1490 :: KLAX-KLAS

FLIGHT INFORMATION

Flight Status: Arrived
Operator:
Alaska Airlines
More flights by this operator :: More flights under this callsign
Pilot: Anonymous 16342 (16342)
Aircraft: AIRBUS A320
(A320)
More flights by this aircraft type
Origin: KLAX Los Angeles Intl
United States
Destination: KLAS McCarran Intl
United States
More flights between these airports :: More routes between these airports
Route: +ORCKA3 MISEN KEPEC6
File this flight plan on PilotEdge
Remarks:
Altitude:
(Current/Filed)
29,000ft
Speed:
(Current/Filed)
461kts
Departed: 26-Aug-18 07:59 AM
Arrived: 26-Aug-18 08:49 AM
Distance/Time
Traveled:
205nm/0:50
Distance/Time
To Go:
Arrived

Flight Plot

Page will automatically refresh every two minutes.

Flight plan parsing failed; only flown route is shown


Map Options




Map Legend


Flown Route
Filed Route
Departure Airport
Arrival Airport
Navaid (VOR, NDB)
Fix

Horizontal Profiles

Position Reports

Time Latitude Longitude Heading Altitude Ground
Speed
26-Aug-18 07:33 33.940140 -118.401375 307 114ft 0kts
26-Aug-18 07:34 33.940140 -118.401375 307 114ft 0kts
26-Aug-18 07:35 33.940140 -118.401375 307 114ft 0kts
26-Aug-18 07:36 33.940140 -118.401375 307 114ft 0kts
26-Aug-18 07:37 33.940140 -118.401375 307 114ft 0kts
26-Aug-18 07:38 33.940140 -118.401375 307 114ft 0kts
26-Aug-18 07:39 33.940140 -118.401375 307 114ft 0kts
26-Aug-18 07:40 33.940140 -118.401375 307 114ft 0kts
26-Aug-18 07:41 33.940140 -118.401375 307 114ft 0kts
26-Aug-18 07:42 33.940140 -118.401375 307 114ft 0kts
26-Aug-18 07:43 33.940140 -118.401375 307 114ft 0kts
26-Aug-18 07:44 33.940140 -118.401375 307 114ft 0kts
26-Aug-18 07:45 33.940140 -118.401375 307 114ft 0kts
26-Aug-18 07:46 33.940140 -118.401375 307 114ft 0kts
26-Aug-18 07:47 33.940140 -118.401375 307 114ft 0kts
26-Aug-18 07:48 33.940140 -118.401375 307 114ft 0kts
26-Aug-18 07:49 33.940140 -118.401375 307 114ft 0kts
26-Aug-18 07:50 33.940140 -118.401375 307 114ft 0kts
26-Aug-18 07:51 33.940033 -118.400930 248 114ft 2kts
26-Aug-18 07:52 33.940416 -118.400683 172 114ft 0kts
26-Aug-18 07:53 33.940416 -118.400683 172 114ft 0kts
26-Aug-18 07:54 33.940416 -118.400683 172 114ft 0kts
26-Aug-18 07:55 33.940416 -118.400683 172 114ft 0kts
26-Aug-18 07:56 33.939158 -118.396471 83 114ft 33kts
26-Aug-18 07:57 33.940134 -118.386833 83 114ft 20kts
26-Aug-18 07:58 33.940753 -118.380924 86 114ft 22kts
26-Aug-18 07:59 33.940119 -118.380169 180 114ft 11kts
26-Aug-18 08:00 33.937090 -118.406759 263 590ft 174kts
26-Aug-18 08:01 33.927673 -118.491420 254 3947ft 254kts
26-Aug-18 08:02 33.906706 -118.558076 248 6263ft 266kts
26-Aug-18 08:03 33.838550 -118.586124 135 10293ft 281kts
26-Aug-18 08:04 33.835026 -118.511685 52 12220ft 321kts
26-Aug-18 08:05 33.915053 -118.448463 32 13979ft 368kts
26-Aug-18 08:06 33.978504 -118.352351 55 16363ft 381kts
26-Aug-18 08:07 34.037378 -118.248490 55 18482ft 393kts
26-Aug-18 08:08 34.099169 -118.139346 55 20413ft 405kts
26-Aug-18 08:09 34.160002 -118.031525 55 22101ft 415kts
26-Aug-18 08:10 34.225553 -117.914957 55 23710ft 425kts
26-Aug-18 08:11 34.292444 -117.795618 55 25176ft 435kts
26-Aug-18 08:12 34.361116 -117.674035 53 26514ft 444kts
26-Aug-18 08:13 34.434014 -117.552012 53 27745ft 452kts
26-Aug-18 08:14 34.507131 -117.429173 53 28986ft 450kts
26-Aug-18 08:15 34.579257 -117.307580 54 29012ft 449kts
26-Aug-18 08:16 34.652048 -117.184419 54 29012ft 450kts
26-Aug-18 08:17 34.723660 -117.062913 54 29005ft 425kts
26-Aug-18 08:18 34.790674 -116.948820 54 29016ft 415kts
26-Aug-18 08:19 34.857425 -116.834687 54 29017ft 416kts
26-Aug-18 08:20 34.924159 -116.720262 54 28336ft 412kts
26-Aug-18 08:21 34.988454 -116.606379 55 27387ft 405kts
26-Aug-18 08:22 35.050960 -116.495404 55 25604ft 393kts
26-Aug-18 08:23 35.112181 -116.391652 45 24052ft 386kts
26-Aug-18 08:24 35.183875 -116.301905 45 23035ft 395kts
26-Aug-18 08:25 35.260155 -116.206142 45 20834ft 387kts
26-Aug-18 08:26 35.332321 -116.115376 45 19386ft 361kts
26-Aug-18 08:27 35.400909 -116.028816 45 18027ft 351kts
26-Aug-18 08:28 35.467963 -115.943965 45 16701ft 344kts
26-Aug-18 08:29 35.533455 -115.860896 45 15408ft 338kts
26-Aug-18 08:30 35.597794 -115.779089 45 14143ft 331kts
26-Aug-18 08:31 35.660715 -115.698900 45 13137ft 311kts
26-Aug-18 08:32 35.719407 -115.623940 45 13021ft 303kts
26-Aug-18 08:33 35.788519 -115.573480 2 13025ft 303kts
26-Aug-18 08:34 35.872615 -115.569023 2 13020ft 303kts
26-Aug-18 08:35 35.956016 -115.560616 23 13016ft 304kts
26-Aug-18 08:36 35.999173 -115.475180 68 12219ft 303kts
26-Aug-18 08:37 36.028944 -115.380124 77 11064ft 283kts
26-Aug-18 08:38 36.024690 -115.287732 95 10006ft 272kts
26-Aug-18 08:39 36.018143 -115.197278 95 9049ft 256kts
26-Aug-18 08:40 36.012575 -115.114655 94 8469ft 230kts
26-Aug-18 08:41 36.007578 -115.036244 94 7502ft 227kts
26-Aug-18 08:42 36.003277 -114.963224 94 6582ft 198kts
26-Aug-18 08:43 36.005077 -114.897479 49 5043ft 194kts
26-Aug-18 08:44 36.045507 -114.910718 317 4181ft 162kts
26-Aug-18 08:45 36.073785 -114.952427 275 4023ft 162kts
26-Aug-18 08:46 36.073868 -115.007928 269 3820ft 162kts
26-Aug-18 08:47 36.073762 -115.061410 269 3162ft 141kts
26-Aug-18 08:48 36.073695 -115.109505 269 2425ft 139kts
26-Aug-18 08:49 36.073621 -115.149703 270 2123ft 50kts
26-Aug-18 08:50 36.074624 -115.154946 302 2123ft 0kts
26-Aug-18 08:51 36.078045 -115.157609 89 2123ft 13kts
26-Aug-18 08:52 36.079169 -115.151018 350 2123ft 17kts
26-Aug-18 08:53 36.082896 -115.149088 56 2123ft 2kts

Navigation Log

Ident Type
Flight plan parsing failed, navigation log unavailable